Time;durP1;ratioP1;P1;durP2;ratioP2;P2;SDS_P1;SDS_P2;PMS_P1;PMS_P2;Temp;Humidity;BMP_temperature;BMP_pressure;BME280_temperature;BME280_humidity;BME280_pressure;Samples;Min_cycle;Max_cycle;Signal;HPM_P1;HPM_P2
2023/05/30 00:02:13;;;;;;;;;;;;;;;22.16;33.03;97570.59;5042932;28;1115;-78
2023/05/30 00:04:39;;;;;;;;;;;;;;;22.20;32.99;97560.72;5041087;28;1124;-79
2023/05/30 00:07:05;;;;;;;;;;;;;;;22.16;32.88;97562.09;5042243;28;936;-79
2023/05/30 00:09:31;;;;;;;;;;;;;;;22.02;33.13;97557.69;5040130;28;982;-79
2023/05/30 00:11:57;;;;;;;;;;;;;;;22.21;32.72;97565.16;5041700;28;1247;-79
2023/05/30 00:14:23;;;;;;;;;;;;;;;22.03;33.10;97565.75;5053588;28;1391;-79
2023/05/30 00:16:48;;;;;;;;;;;;;;;22.27;32.87;97568.97;5044986;28;1899;-79
2023/05/30 00:19:14;;;;;;;;;;;;;;;22.19;32.97;97573.31;5044246;28;1274;-78
2023/05/30 00:21:39;;;;;;;;;;;;;;;22.10;32.92;97576.03;5044922;28;1236;-79
2023/05/30 00:24:05;;;;;;;;;;;;;;;22.09;32.87;97582.97;5076642;28;1242;-79
2023/05/30 00:26:31;;;;;;;;;;;;;;;22.02;33.11;97574.69;5083633;28;887;-79
2023/05/30 00:28:56;;;;;;;;;;;;;;;22.28;32.50;97575.44;5081480;28;1368;-79
2023/05/30 00:31:23;;;;;;;;;;;;;;;22.29;32.28;97577.03;5084364;28;880;-79
2023/05/30 00:33:48;;;;;;;;;;;;;;;22.32;32.31;97578.94;5081425;28;1259;-79
2023/05/30 00:36:16;;;;;;;;;;;;;;;22.19;32.73;97583.88;5065551;28;1248;-79
2023/05/30 00:38:41;;;;;;;;;;;;;;;22.30;32.37;97585.06;5062839;28;1891;-79
2023/05/30 00:41:07;;;;;;;;;;;;;;;22.16;32.67;97577.06;5065839;28;980;-78
2023/05/30 00:43:32;;;;;;;;;;;;;;;22.18;32.47;97583.09;5060163;28;1401;-79
2023/05/30 00:45:58;;;;;;;;;;;;;;;22.32;32.07;97585.38;5062232;28;1029;-79
2023/05/30 00:48:23;;;;;;;;;;;;;;;22.13;32.65;97580.84;5060112;28;976;-79
2023/05/30 00:50:49;;;;;;;;;;;;;;;22.16;32.40;97585.56;5045169;28;1182;-78
2023/05/30 00:53:15;;;;;;;;;;;;;;;22.07;32.55;97583.44;5039359;28;1262;-79
2023/05/30 00:55:40;;;;;;;;;;;;;;;21.92;33.00;97581.56;5024435;28;1128;-79
2023/05/30 00:58:06;;;;;;;;;;;;;;;21.97;32.97;97578.13;4992228;28;1906;-80
2023/05/30 01:00:32;;;;;;;;;;;;;;;22.21;32.69;97582.16;5032480;28;1653;-78
2023/05/30 01:03:00;;;;;;;;;;;;;;;22.41;32.34;97583.88;5007780;28;1807;-79
2023/05/30 01:05:26;;;;;;;;;;;;;;;22.19;32.70;97590.31;4981703;28;1148;-78
2023/05/30 01:07:52;;;;;;;;;;;;;;;22.22;32.71;97578.06;4965244;28;1165;-79
2023/05/30 01:10:17;;;;;;;;;;;;;;;22.41;32.37;97589.56;4949251;28;1149;-79
2023/05/30 01:12:47;;;;;;;;;;;;;;;22.20;32.95;97586.25;4929693;29;947;-79
2023/05/30 01:15:33;;;;;;;;;;;;;;;22.20;32.65;97589.06;4961678;29;1070;-79
2023/05/30 01:18:14;;;;;;;;;;;;;;;22.41;32.24;97587.50;4964908;28;1915;-79
2023/05/30 01:20:41;;;;;;;;;;;;;;;22.55;32.26;97583.38;4981210;28;1738;-79
2023/05/30 01:23:20;;;;;;;;;;;;;;;22.59;32.19;97578.38;4949970;28;1251;-79
2023/05/30 01:26:05;;;;;;;;;;;;;;;22.39;32.39;97581.53;4985272;28;1351;-79
2023/05/30 01:28:32;;;;;;;;;;;;;;;22.40;32.60;97577.44;4999720;28;943;-79
2023/05/30 01:30:58;;;;;;;;;;;;;;;22.22;32.75;97574.44;4982738;28;1122;-79
2023/05/30 01:33:23;;;;;;;;;;;;;;;21.99;33.30;97572.81;4963646;28;1255;-79
2023/05/30 01:35:51;;;;;;;;;;;;;;;22.39;32.37;97575.84;4955166;28;1665;-79
2023/05/30 01:38:17;;;;;;;;;;;;;;;22.38;32.46;97574.25;4999261;28;1979;-79
2023/05/30 01:40:44;;;;;;;;;;;;;;;22.23;32.99;97579.66;4969107;28;1144;-79
2023/05/30 01:43:19;;;;;;;;;;;;;;;22.44;32.38;97568.81;4959643;28;1109;-79
2023/05/30 01:45:44;;;;;;;;;;;;;;;22.45;32.51;97573.22;5021027;28;1078;-79
2023/05/30 01:48:14;;;;;;;;;;;;;;;22.18;33.14;97571.75;5019399;28;981;-79
2023/05/30 01:50:41;;;;;;;;;;;;;;;22.36;32.79;97569.03;5026134;28;1439;-78
2023/05/30 01:53:09;;;;;;;;;;;;;;;22.33;32.79;97567.16;5023296;28;1240;-79
2023/05/30 01:55:35;;;;;;;;;;;;;;;22.33;32.82;97572.81;5025189;28;1166;-78
2023/05/30 01:58:00;;;;;;;;;;;;;;;22.13;33.10;97563.84;5026323;28;1977;-79
2023/05/30 02:00:29;;;;;;;;;;;;;;;22.18;32.84;97577.41;5043195;28;1268;-79
2023/05/30 02:02:54;;;;;;;;;;;;;;;22.42;32.56;97580.59;5042027;28;1242;-78
2023/05/30 02:05:20;;;;;;;;;;;;;;;22.48;32.58;97583.63;5029976;28;1337;-79
2023/05/30 02:07:45;;;;;;;;;;;;;;;22.54;32.44;97582.59;5046870;28;1236;-79
2023/05/30 02:10:11;;;;;;;;;;;;;;;22.59;32.29;97579.16;5046009;28;1142;-78
2023/05/30 02:12:46;;;;;;;;;;;;;;;22.13;33.06;97583.66;5063664;28;978;-79
2023/05/30 02:15:11;;;;;;;;;;;;;;;21.96;33.64;97593.53;5030007;28;1107;-78
2023/05/30 02:17:38;;;;;;;;;;;;;;;22.37;32.79;97595.34;5030267;28;1895;-78
2023/05/30 02:20:03;;;;;;;;;;;;;;;22.29;32.88;97600.50;5062042;28;1398;-79
2023/05/30 02:22:29;;;;;;;;;;;;;;;22.00;33.53;97594.22;5064696;28;989;-79
2023/05/30 02:24:55;;;;;;;;;;;;;;;21.97;33.47;97603.63;5045626;28;1185;-78
2023/05/30 02:27:20;;;;;;;;;;;;;;;22.03;33.64;97593.31;5063602;28;937;-79
2023/05/30 02:29:46;;;;;;;;;;;;;;;22.21;33.09;97599.16;5045651;28;1189;-79
2023/05/30 02:32:11;;;;;;;;;;;;;;;22.29;32.98;97602.53;5063336;28;960;-79
2023/05/30 02:34:37;;;;;;;;;;;;;;;22.20;33.21;97597.56;5022075;28;1476;-79
2023/05/30 02:37:03;;;;;;;;;;;;;;;22.04;33.11;97600.53;4991914;28;1898;-78
2023/05/30 02:39:28;;;;;;;;;;;;;;;22.04;32.99;97600.53;5029819;28;1459;-79
2023/05/30 02:41:54;;;;;;;;;;;;;;;22.18;32.54;97600.09;5067300;28;1094;-79
2023/05/30 02:44:19;;;;;;;;;;;;;;;22.10;32.70;97604.38;5065273;28;1179;-78
2023/05/30 02:46:45;;;;;;;;;;;;;;;22.11;32.79;97605.97;5066780;28;1162;-78
2023/05/30 02:49:11;;;;;;;;;;;;;;;22.28;32.32;97610.25;5065721;28;1176;-79
2023/05/30 02:51:37;;;;;;;;;;;;;;;22.14;32.84;97616.41;5066602;28;1061;-79
2023/05/30 02:54:06;;;;;;;;;;;;;;;22.14;32.49;97605.09;5063745;28;1396;-79
2023/05/30 02:56:51;;;;;;;;;;;;;;;22.25;32.40;97622.50;5021725;28;1914;-79
2023/05/30 02:59:40;;;;;;;;;;;;;;;22.03;32.92;97615.97;5005851;28;1451;-79
2023/05/30 03:02:09;;;;;;;;;;;;;;;22.05;32.62;97616.28;5006703;28;1171;-79
2023/05/30 03:04:36;;;;;;;;;;;;;;;22.08;32.67;97615.38;5005003;28;1120;-79
2023/05/30 03:07:02;;;;;;;;;;;;;;;21.76;33.40;97620.09;5005515;28;1416;-78
2023/05/30 03:09:30;;;;;;;;;;;;;;;22.13;32.51;97614.03;5021900;28;1261;-79
2023/05/30 03:11:56;;;;;;;;;;;;;;;22.26;32.49;97624.06;5015282;28;1482;-79
2023/05/30 03:14:21;;;;;;;;;;;;;;;22.12;32.84;97613.22;5024788;28;1175;-79
2023/05/30 03:16:48;;;;;;;;;;;;;;;22.08;32.77;97621.06;5042803;28;1980;-79
2023/05/30 03:19:16;;;;;;;;;;;;;;;21.95;32.80;97625.94;5009125;28;1092;-77
2023/05/30 03:21:42;;;;;;;;;;;;;;;22.13;32.66;97625.38;5003074;28;1313;-79
2023/05/30 03:24:12;;;;;;;;;;;;;;;22.27;32.16;97622.81;4984034;28;1349;-78
2023/05/30 03:26:41;;;;;;;;;;;;;;;22.05;32.63;97625.56;5002954;28;1439;-79
2023/05/30 03:29:08;;;;;;;;;;;;;;;22.08;32.80;97626.72;5001922;28;1250;-79
2023/05/30 03:31:35;;;;;;;;;;;;;;;21.91;33.15;97625.25;5003024;28;966;-79
2023/05/30 03:34:01;;;;;;;;;;;;;;;21.98;32.72;97625.03;4993984;28;1253;-78
2023/05/30 03:36:27;;;;;;;;;;;;;;;22.11;32.66;97625.81;4990010;28;1891;-78
2023/05/30 03:38:55;;;;;;;;;;;;;;;22.05;32.51;97638.94;4989349;28;1262;-79
2023/05/30 03:41:21;;;;;;;;;;;;;;;22.18;32.55;97633.31;4993220;28;1380;-79
2023/05/30 03:43:46;;;;;;;;;;;;;;;22.18;32.56;97639.75;4984847;28;1143;-78
2023/05/30 03:46:14;;;;;;;;;;;;;;;22.17;32.47;97632.47;5022013;28;1209;-78
2023/05/30 03:48:39;;;;;;;;;;;;;;;21.89;32.96;97651.22;5004502;28;1236;-78
2023/05/30 03:51:05;;;;;;;;;;;;;;;21.96;32.80;97638.84;5022567;28;1120;-79
2023/05/30 03:53:31;;;;;;;;;;;;;;;21.95;32.73;97645.78;5003370;28;1549;-79
2023/05/30 03:55:56;;;;;;;;;;;;;;;22.07;32.54;97639.28;5022248;28;1168;-79
2023/05/30 03:58:22;;;;;;;;;;;;;;;22.02;32.70;97643.50;5027478;28;1910;-79
2023/05/30 04:00:47;;;;;;;;;;;;;;;22.06;32.55;97640.53;5045536;28;1074;-78
2023/05/30 04:03:13;;;;;;;;;;;;;;;22.12;32.55;97641.56;5060544;28;852;-79
2023/05/30 04:05:40;;;;;;;;;;;;;;;21.99;32.99;97643.63;5061114;28;1139;-79
2023/05/30 04:08:06;;;;;;;;;;;;;;;22.08;32.47;97635.22;5080219;28;987;-78
2023/05/30 04:10:32;;;;;;;;;;;;;;;21.98;32.96;97644.88;5081140;28;981;-79
2023/05/30 04:12:57;;;;;;;;;;;;;;;21.87;33.14;97642.41;5064065;28;1229;-79
2023/05/30 04:15:23;;;;;;;;;;;;;;;22.05;32.65;97647.47;5061213;28;1310;-78
2023/05/30 04:17:48;;;;;;;;;;;;;;;21.89;33.13;97648.41;5043747;28;1906;-78
2023/05/30 04:20:15;;;;;;;;;;;;;;;21.68;33.55;97649.88;5044338;28;1186;-79
2023/05/30 04:22:42;;;;;;;;;;;;;;;21.90;32.98;97640.69;5028830;28;1425;-78
2023/05/30 04:25:08;;;;;;;;;;;;;;;21.96;32.83;97644.53;5044299;28;1201;-77
2023/05/30 04:27:36;;;;;;;;;;;;;;;22.18;32.29;97645.44;5029011;28;1076;-79
2023/05/30 04:30:03;;;;;;;;;;;;;;;21.74;33.51;97642.41;5026814;28;1134;-78
2023/05/30 04:32:33;;;;;;;;;;;;;;;22.08;32.68;97646.56;5062181;28;1234;-79
2023/05/30 04:35:01;;;;;;;;;;;;;;;22.00;32.67;97645.19;5027905;28;1151;-79
2023/05/30 04:37:27;;;;;;;;;;;;;;;22.14;32.42;97650.41;5044999;28;1971;-79
2023/05/30 04:39:56;;;;;;;;;;;;;;;22.11;32.57;97651.31;5027350;28;1180;-78
2023/05/30 04:42:26;;;;;;;;;;;;;;;22.01;32.80;97652.44;5061091;28;1260;-79
2023/05/30 04:44:53;;;;;;;;;;;;;;;22.19;32.59;97646.22;5027395;28;1525;-79
2023/05/30 04:47:21;;;;;;;;;;;;;;;22.18;32.70;97651.09;5061231;28;1078;-79
2023/05/30 04:49:46;;;;;;;;;;;;;;;22.20;33.02;97647.78;5043599;28;1134;-79
2023/05/30 04:52:12;;;;;;;;;;;;;;;21.90;33.25;97657.69;5043959;28;1301;-79
2023/05/30 04:54:37;;;;;;;;;;;;;;;21.92;33.26;97655.19;5043145;28;1244;-79
2023/05/30 04:57:03;;;;;;;;;;;;;;;22.02;33.27;97656.84;5010649;28;1910;-79
2023/05/30 04:59:29;;;;;;;;;;;;;;;21.99;33.17;97658.56;5010420;28;1245;-78
2023/05/30 05:01:55;;;;;;;;;;;;;;;22.02;33.02;97662.53;5009945;28;1142;-79
2023/05/30 05:04:21;;;;;;;;;;;;;;;22.24;33.01;97654.13;5010429;28;1229;-79
2023/05/30 05:06:46;;;;;;;;;;;;;;;22.45;32.82;97663.94;5008656;28;1162;-79
2023/05/30 05:09:13;;;;;;;;;;;;;;;21.91;33.79;97667.75;4993406;28;1528;-79
2023/05/30 05:11:38;;;;;;;;;;;;;;;22.01;33.55;97656.06;4995844;28;1303;-80
2023/05/30 05:14:04;;;;;;;;;;;;;;;22.45;32.70;97669.59;5009624;28;1258;-79
2023/05/30 05:16:29;;;;;;;;;;;;;;;22.37;33.01;97654.88;5009458;28;1985;-78
2023/05/30 05:18:55;;;;;;;;;;;;;;;22.23;33.07;97655.38;5055908;28;1221;-79
2023/05/30 05:21:20;;;;;;;;;;;;;;;22.24;33.15;97660.59;5069158;28;1117;-79
2023/05/30 05:23:46;;;;;;;;;;;;;;;22.27;32.85;97659.66;5033074;28;1241;-79
2023/05/30 05:26:12;;;;;;;;;;;;;;;22.19;32.94;97664.00;5034150;28;1278;-79
2023/05/30 05:28:37;;;;;;;;;;;;;;;22.19;33.07;97678.19;5002935;28;929;-79
2023/05/30 05:31:03;;;;;;;;;;;;;;;21.95;33.14;97677.72;5025475;28;925;-79
2023/05/30 05:33:28;;;;;;;;;;;;;;;21.96;33.30;97673.63;5006138;28;1075;-79
2023/05/30 05:35:54;;;;;;;;;;;;;;;21.77;33.80;97678.31;5007876;28;1500;-79
2023/05/30 05:38:19;;;;;;;;;;;;;;;21.90;33.09;97669.00;5022423;28;1944;-79
2023/05/30 05:40:45;;;;;;;;;;;;;;;21.87;33.29;97684.09;5023983;28;890;-80
2023/05/30 05:43:10;;;;;;;;;;;;;;;22.12;32.75;97669.91;5006371;28;1136;-79
2023/05/30 05:45:36;;;;;;;;;;;;;;;21.76;33.16;97670.25;5007825;28;1135;-79
2023/05/30 05:48:01;;;;;;;;;;;;;;;22.03;32.93;97678.28;5006880;28;1197;-79
2023/05/30 05:50:27;;;;;;;;;;;;;;;22.20;32.73;97671.25;5004448;28;946;-79
2023/05/30 05:52:53;;;;;;;;;;;;;;;22.11;32.53;97674.00;4986591;28;1173;-79
2023/05/30 05:55:18;;;;;;;;;;;;;;;21.81;33.34;97669.69;5018741;28;943;-79
2023/05/30 05:57:43;;;;;;;;;;;;;;;22.14;32.32;97680.81;5006581;28;1979;-79
2023/05/30 06:00:09;;;;;;;;;;;;;;;21.79;33.19;97678.66;5002835;28;945;-80
2023/05/30 06:02:38;;;;;;;;;;;;;;;21.93;32.78;97685.09;5063361;28;1021;-79
2023/05/30 06:05:04;;;;;;;;;;;;;;;21.89;32.95;97670.25;5062629;28;925;-80
2023/05/30 06:07:29;;;;;;;;;;;;;;;22.23;32.21;97681.69;5030394;28;961;-79
2023/05/30 06:09:55;;;;;;;;;;;;;;;21.91;32.73;97687.59;5028978;28;1411;-79
2023/05/30 06:12:20;;;;;;;;;;;;;;;22.01;32.71;97683.59;5034956;28;1329;-79
2023/05/30 06:14:46;;;;;;;;;;;;;;;22.17;32.41;97683.50;5030948;28;1257;-79
2023/05/30 06:17:11;;;;;;;;;;;;;;;21.80;33.02;97683.06;5026688;28;1991;-80
2023/05/30 06:19:36;;;;;;;;;;;;;;;21.78;33.04;97688.41;5039482;28;1086;-79
2023/05/30 06:22:02;;;;;;;;;;;;;;;21.84;32.92;97691.44;5053099;28;1071;-79
2023/05/30 06:24:28;;;;;;;;;;;;;;;21.78;33.23;97696.91;5040193;28;1221;-79
2023/05/30 06:26:53;;;;;;;;;;;;;;;21.74;32.98;97696.22;5053698;28;1224;-78
2023/05/30 06:29:19;;;;;;;;;;;;;;;21.77;32.99;97688.84;5083368;28;1267;-79
2023/05/30 06:31:44;;;;;;;;;;;;;;;21.66;33.51;97682.72;5084532;28;970;-79
2023/05/30 06:34:10;;;;;;;;;;;;;;;21.98;32.90;97693.03;5082590;28;907;-80
2023/05/30 06:36:36;;;;;;;;;;;;;;;22.14;32.36;97701.41;5067479;28;1906;-79
2023/05/30 06:39:02;;;;;;;;;;;;;;;22.06;32.39;97700.81;5055939;28;1247;-79
2023/05/30 06:41:28;;;;;;;;;;;;;;;21.80;32.84;97700.06;5036865;28;1321;-80
2023/05/30 06:43:53;;;;;;;;;;;;;;;21.93;32.77;97699.28;5073968;28;1173;-79
2023/05/30 06:46:19;;;;;;;;;;;;;;;21.81;33.17;97703.69;5083573;28;1174;-80
2023/05/30 06:48:45;;;;;;;;;;;;;;;21.95;32.76;97706.06;5056142;28;1209;-79
2023/05/30 06:51:11;;;;;;;;;;;;;;;21.95;32.51;97710.94;5077350;28;1365;-79
2023/05/30 06:53:36;;;;;;;;;;;;;;;22.10;32.37;97709.22;5065110;28;1189;-79
2023/05/30 06:56:02;;;;;;;;;;;;;;;21.91;32.80;97713.88;5084300;28;1315;-80
2023/05/30 06:58:28;;;;;;;;;;;;;;;21.78;32.84;97711.06;5063171;28;1921;-79
2023/05/30 07:00:53;;;;;;;;;;;;;;;22.05;32.32;97715.44;5083670;28;1359;-79
2023/05/30 07:03:19;;;;;;;;;;;;;;;22.39;31.79;97728.13;5056968;28;1224;-79
2023/05/30 07:05:44;;;;;;;;;;;;;;;22.19;31.93;97726.34;5084070;28;1268;-79
2023/05/30 07:08:10;;;;;;;;;;;;;;;22.02;32.35;97727.69;5082403;28;1252;-79
2023/05/30 07:10:36;;;;;;;;;;;;;;;22.21;32.01;97732.34;5046102;28;1099;-79
2023/05/30 07:13:02;;;;;;;;;;;;;;;22.09;32.16;97733.13;5061735;28;933;-79
2023/05/30 07:15:29;;;;;;;;;;;;;;;21.66;32.83;97734.50;5045728;28;1329;-79
2023/05/30 07:17:55;;;;;;;;;;;;;;;21.68;33.04;97732.00;5062495;28;1988;-79
2023/05/30 07:20:23;;;;;;;;;;;;;;;21.85;32.77;97732.69;5045175;28;1132;-80
2023/05/30 07:22:49;;;;;;;;;;;;;;;21.63;33.39;97740.28;5045961;28;1211;-80
2023/05/30 07:25:15;;;;;;;;;;;;;;;21.74;33.13;97744.34;5045861;28;1075;-80
2023/05/30 07:27:40;;;;;;;;;;;;;;;22.03;32.55;97735.75;5062682;28;970;-78
2023/05/30 07:30:06;;;;;;;;;;;;;;;22.04;32.48;97736.53;5044667;28;1125;-79
2023/05/30 07:32:31;;;;;;;;;;;;;;;21.85;32.80;97741.97;5029260;28;1142;-79
2023/05/30 07:34:57;;;;;;;;;;;;;;;22.02;32.56;97739.00;5044331;28;977;-79
2023/05/30 07:37:22;;;;;;;;;;;;;;;21.89;32.76;97746.75;5062335;28;1910;-79
2023/05/30 07:39:48;;;;;;;;;;;;;;;21.74;32.72;97744.34;5044491;28;1721;-79
2023/05/30 07:42:13;;;;;;;;;;;;;;;21.63;32.96;97746.72;5079562;28;1013;-79
2023/05/30 07:44:39;;;;;;;;;;;;;;;21.73;32.76;97745.59;5082089;28;964;-79
2023/05/30 07:47:04;;;;;;;;;;;;;;;21.66;32.83;97751.50;5083447;28;912;-79
2023/05/30 07:49:30;;;;;;;;;;;;;;;21.57;32.90;97759.84;5064980;28;952;-79
2023/05/30 07:51:55;;;;;;;;;;;;;;;21.93;32.17;97758.75;5083247;28;1122;-80
2023/05/30 07:54:21;;;;;;;;;;;;;;;21.90;32.24;97753.97;5063665;28;949;-78
2023/05/30 07:56:46;;;;;;;;;;;;;;;21.66;32.55;97751.50;5084492;28;1905;-79
2023/05/30 07:59:12;;;;;;;;;;;;;;;21.71;32.32;97753.75;5082114;28;938;-80
2023/05/30 08:01:37;;;;;;;;;;;;;;;21.70;32.32;97757.81;5066599;28;1165;-79
2023/05/30 08:04:03;;;;;;;;;;;;;;;21.91;31.81;97755.56;5064907;28;1110;-80
2023/05/30 08:06:29;;;;;;;;;;;;;;;21.91;31.85;97762.03;5083859;28;993;-80
2023/05/30 08:08:54;;;;;;;;;;;;;;;21.71;32.28;97759.44;5065253;28;964;-79
2023/05/30 08:11:20;;;;;;;;;;;;;;;21.82;31.98;97759.88;5066150;28;924;-80
2023/05/30 08:13:52;;;;;;;;;;;;;;;21.77;32.10;97751.94;5100044;27;1449;-79
2023/05/30 08:16:18;;;;;;;;;;;;;;;21.81;32.22;97754.66;5099304;28;1286;-79
2023/05/30 08:18:45;;;;;;;;;;;;;;;21.82;32.05;97762.72;5115320;28;970;-79
2023/05/30 08:21:11;;;;;;;;;;;;;;;21.65;32.71;97752.72;5116147;28;1347;-79
2023/05/30 08:23:36;;;;;;;;;;;;;;;21.87;32.21;97755.69;5131976;28;875;-80
2023/05/30 08:26:02;;;;;;;;;;;;;;;21.91;31.96;97758.41;5134569;27;875;-79
2023/05/30 08:28:28;;;;;;;;;;;;;;;22.07;31.84;97744.94;5131565;27;896;-79
2023/05/30 08:30:53;;;;;;;;;;;;;;;21.90;32.25;97753.97;5133506;28;883;-79
2023/05/30 08:33:19;;;;;;;;;;;;;;;22.08;31.82;97740.06;5131700;28;1901;-79
2023/05/30 08:35:45;;;;;;;;;;;;;;;21.92;32.23;97745.84;5116185;28;868;-80
2023/05/30 08:38:10;;;;;;;;;;;;;;;21.95;31.82;97750.59;5097167;28;1080;-80
2023/05/30 08:40:37;;;;;;;;;;;;;;;21.98;32.17;97744.81;5133191;28;886;-79
2023/05/30 08:43:03;;;;;;;;;;;;;;;21.84;32.08;97751.72;5114836;28;929;-80
2023/05/30 08:45:28;;;;;;;;;;;;;;;21.98;31.70;97752.53;5100270;28;886;-79
2023/05/30 08:47:57;;;;;;;;;;;;;;;21.84;31.90;97757.38;5132268;28;920;-80
2023/05/30 08:50:22;;;;;;;;;;;;;;;22.10;31.61;97748.88;5098413;28;958;-80
2023/05/30 08:52:51;;;;;;;;;;;;;;;21.84;32.24;97748.88;5116338;28;1980;-80
2023/05/30 08:55:19;;;;;;;;;;;;;;;21.66;32.50;97760.00;5133080;28;896;-79
2023/05/30 08:57:47;;;;;;;;;;;;;;;21.79;32.22;97757.94;5132233;27;972;-80
2023/05/30 09:00:13;;;;;;;;;;;;;;;21.73;32.07;97756.13;5099434;28;862;-80
2023/05/30 09:02:39;;;;;;;;;;;;;;;21.85;31.92;97761.78;5132567;27;917;-80
2023/05/30 09:05:05;;;;;;;;;;;;;;;21.82;32.03;97771.22;5132609;28;901;-80
2023/05/30 09:07:30;;;;;;;;;;;;;;;21.91;32.01;97766.91;5132777;28;1165;-81
2023/05/30 09:09:56;;;;;;;;;;;;;;;21.85;32.00;97770.28;5079420;28;1225;-80
2023/05/30 09:12:22;;;;;;;;;;;;;;;21.91;31.94;97764.06;5081263;28;1910;-80
2023/05/30 09:14:47;;;;;;;;;;;;;;;21.99;31.87;97751.28;5078170;28;1272;-80
2023/05/30 09:17:13;;;;;;;;;;;;;;;21.89;32.08;97772.22;5099033;28;1224;-80
2023/05/30 09:19:38;;;;;;;;;;;;;;;21.70;32.54;97766.31;5096904;28;1248;-80
2023/05/30 09:22:05;;;;;;;;;;;;;;;21.85;31.94;97772.34;5098028;28;1374;-81
2023/05/30 09:24:49;;;;;;;;;;;;;;;21.97;31.61;97756.59;5071275;28;1260;-80
2023/05/30 09:27:15;;;;;;;;;;;;;;;21.78;31.98;97764.88;5068064;28;1220;-80
2023/05/30 09:29:44;;;;;;;;;;;;;;;22.03;31.61;97763.28;5083484;28;886;-80
2023/05/30 09:32:09;;;;;;;;;;;;;;;21.74;32.21;97761.34;5050290;28;1965;-80
2023/05/30 09:34:35;;;;;;;;;;;;;;;21.88;31.95;97762.94;5066756;28;1200;-80
2023/05/30 09:37:03;;;;;;;;;;;;;;;21.78;32.35;97762.03;5085194;28;1162;-80
2023/05/30 09:39:28;;;;;;;;;;;;;;;21.67;32.48;97763.63;5066897;28;1271;-80
2023/05/30 09:41:55;;;;;;;;;;;;;;;21.76;32.52;97773.03;5084399;28;1007;-80
2023/05/30 09:44:20;;;;;;;;;;;;;;;21.77;32.23;97779.47;5067202;28;1220;-80
2023/05/30 09:46:47;;;;;;;;;;;;;;;21.85;31.85;97770.28;5068327;28;1009;-80
2023/05/30 09:49:12;;;;;;;;;;;;;;;21.91;31.67;97772.56;5066768;28;1199;-80
2023/05/30 09:51:38;;;;;;;;;;;;;;;21.99;31.94;97762.59;5084684;28;1906;-80
2023/05/30 09:54:04;;;;;;;;;;;;;;;21.71;32.48;97765.09;5066251;28;1181;-80
2023/05/30 09:56:30;;;;;;;;;;;;;;;21.73;31.99;97762.59;5067892;28;1065;-79
2023/05/30 09:59:02;;;;;;;;;;;;;;;21.79;32.03;97757.94;5066460;28;941;-80
2023/05/30 10:01:38;;;;;;;;;;;;;;;21.73;32.11;97756.94;5084552;28;960;-80
2023/05/30 10:04:13;;;;;;;;;;;;;;;21.89;31.83;97760.91;5084106;28;964;-80
2023/05/30 10:06:39;;;;;;;;;;;;;;;21.75;32.08;97760.09;5067986;28;1133;-79
2023/05/30 10:09:04;;;;;;;;;;;;;;;21.79;31.96;97766.44;5066379;28;785;-79
2023/05/30 10:11:30;;;;;;;;;;;;;;;21.79;31.87;97766.44;5068194;28;1902;-80
2023/05/30 10:13:55;;;;;;;;;;;;;;;21.76;31.97;97761.69;5083533;28;1095;-80
2023/05/30 10:16:21;;;;;;;;;;;;;;;21.75;31.92;97751.59;5068119;28;1580;-81
2023/05/30 10:18:53;;;;;;;;;;;;;;;21.79;31.83;97738.13;5082804;28;995;-80
2023/05/30 10:21:21;;;;;;;;;;;;;;;22.05;31.63;97749.44;5084771;28;825;-80
2023/05/30 10:23:46;;;;;;;;;;;;;;;21.78;32.16;97745.03;5083420;28;850;-80
2023/05/30 10:26:12;;;;;;;;;;;;;;;21.58;32.44;97750.13;5068171;28;1219;-80
2023/05/30 10:28:37;;;;;;;;;;;;;;;21.61;32.46;97748.44;5080370;28;946;-80
2023/05/30 10:31:03;;;;;;;;;;;;;;;21.71;32.46;97747.28;5067866;28;1154;-80
2023/05/30 10:33:29;;;;;;;;;;;;;;;21.92;31.89;97740.19;5082173;28;1981;-80
2023/05/30 10:35:54;;;;;;;;;;;;;;;21.97;31.82;97736.78;5081292;28;954;-81
2023/05/30 10:38:20;;;;;;;;;;;;;;;21.66;32.40;97743.00;5044708;28;1237;-80
2023/05/30 10:40:48;;;;;;;;;;;;;;;21.82;32.04;97734.41;5064782;28;1246;-80
2023/05/30 10:43:26;;;;;;;;;;;;;;;21.90;31.64;97734.16;5080446;28;1264;-81
2023/05/30 10:46:00;;;;;;;;;;;;;;;21.77;32.00;97734.16;5082183;28;1434;-80
2023/05/30 10:48:40;;;;;;;;;;;;;;;21.77;31.95;97734.97;5059859;28;1166;-81
2023/05/30 10:51:05;;;;;;;;;;;;;;;21.79;32.21;97738.13;5062737;28;988;-81
2023/05/30 10:53:38;;;;;;;;;;;;;;;21.74;32.04;97754.88;5044623;28;1895;-80
2023/05/30 10:56:05;;;;;;;;;;;;;;;21.80;31.96;97739.69;5050317;28;1185;-80
2023/05/30 10:58:33;;;;;;;;;;;;;;;21.85;31.67;97736.31;5077988;28;915;-80
2023/05/30 11:01:18;;;;;;;;;;;;;;;21.91;31.70;97730.06;5082402;28;985;-80
2023/05/30 11:03:44;;;;;;;;;;;;;;;21.81;31.73;97724.31;5080153;28;1054;-80
2023/05/30 11:06:10;;;;;;;;;;;;;;;21.95;31.84;97730.75;5067027;28;920;-81
2023/05/30 11:08:38;;;;;;;;;;;;;;;21.78;31.86;97735.75;5080673;28;1296;-80
2023/05/30 11:11:14;;;;;;;;;;;;;;;21.65;32.43;97735.72;5083684;28;1153;-80
2023/05/30 11:13:43;;;;;;;;;;;;;;;21.61;32.10;97734.28;5080135;28;1910;-80
2023/05/30 11:16:23;;;;;;;;;;;;;;;21.93;31.60;97730.44;5082315;28;1211;-81
2023/05/30 11:18:51;;;;;;;;;;;;;;;21.71;31.93;97710.47;5080480;28;1197;-81
2023/05/30 11:21:36;;;;;;;;;;;;;;;21.85;31.66;97724.97;5082135;28;1163;-80
2023/05/30 11:24:03;;;;;;;;;;;;;;;21.65;31.79;97735.72;5080512;28;1034;-81
2023/05/30 11:26:49;;;;;;;;;;;;;;;21.66;31.80;97731.69;5099000;28;944;-81
2023/05/30 11:29:33;;;;;;;;;;;;;;;21.80;31.68;97739.69;5060024;28;970;-81
2023/05/30 11:31:59;;;;;;;;;;;;;;;21.88;31.30;97731.78;5021777;28;1910;-81
2023/05/30 11:34:25;;;;;;;;;;;;;;;21.71;31.58;97736.78;5004148;28;1235;-81
2023/05/30 11:36:50;;;;;;;;;;;;;;;21.78;31.17;97725.22;5022047;28;971;-81
2023/05/30 11:39:19;;;;;;;;;;;;;;;21.90;31.06;97720.00;5020863;28;1073;-81
2023/05/30 11:41:44;;;;;;;;;;;;;;;21.52;31.72;97730.06;5022311;28;920;-81
2023/05/30 11:44:10;;;;;;;;;;;;;;;21.68;31.47;97743.34;5005173;28;1252;-81
2023/05/30 11:46:36;;;;;;;;;;;;;;;21.96;31.16;97747.28;5005395;28;1107;-80
2023/05/30 11:49:07;;;;;;;;;;;;;;;21.73;31.16;97751.25;5004292;28;1248;-80
2023/05/30 11:51:33;;;;;;;;;;;;;;;21.56;31.67;97752.63;5005250;28;2048;-80
2023/05/30 11:53:58;;;;;;;;;;;;;;;21.60;31.70;97747.63;5021213;28;1416;-81
2023/05/30 11:56:33;;;;;;;;;;;;;;;21.73;31.47;97750.47;5005894;28;1222;-80
2023/05/30 11:58:58;;;;;;;;;;;;;;;21.44;31.68;97747.72;5021620;28;1010;-81
2023/05/30 12:01:24;;;;;;;;;;;;;;;21.48;31.69;97735.03;5021880;28;924;-81
2023/05/30 12:03:50;;;;;;;;;;;;;;;21.52;31.41;97755.53;5021075;28;1117;-81
2023/05/30 12:06:15;;;;;;;;;;;;;;;21.47;31.57;97756.09;4982775;28;959;-81
2023/05/30 12:08:41;;;;;;;;;;;;;;;21.97;31.47;97751.72;4988654;28;1266;-81
2023/05/30 12:11:09;;;;;;;;;;;;;;;22.44;31.34;97753.06;4989920;28;1073;-81
2023/05/30 12:13:35;;;;;;;;;;;;;;;22.06;32.72;97749.00;4987202;28;1914;-81
2023/05/30 12:16:00;;;;;;;;;;;;;;;22.53;32.14;97747.47;5022782;28;862;-81
2023/05/30 12:18:26;;;;;;;;;;;;;;;21.94;32.77;97743.34;5000462;28;1182;-81
2023/05/30 12:20:51;;;;;;;;;;;;;;;21.88;32.59;97740.28;5003236;28;934;-81
2023/05/30 12:23:17;;;;;;;;;;;;;;;22.14;32.02;97740.31;5001690;28;987;-81
2023/05/30 12:25:51;;;;;;;;;;;;;;;21.86;32.26;97754.09;4986768;28;928;-81
2023/05/30 12:28:16;;;;;;;;;;;;;;;21.90;31.85;97756.81;4980821;28;928;-81
2023/05/30 12:30:42;;;;;;;;;;;;;;;21.94;31.46;97754.69;4983648;28;958;-81
2023/05/30 12:33:14;;;;;;;;;;;;;;;21.95;31.50;97761.91;5029629;28;1894;-81
2023/05/30 12:35:43;;;;;;;;;;;;;;;22.01;30.89;97749.56;5038747;28;1232;-81
2023/05/30 12:38:10;;;;;;;;;;;;;;;21.59;31.62;97752.50;5089709;28;1202;-81
2023/05/30 12:40:40;;;;;;;;;;;;;;;21.79;30.93;97748.66;5065573;28;875;-81
2023/05/30 12:43:06;;;;;;;;;;;;;;;21.88;30.91;97751.63;5064626;28;921;-81
2023/05/30 12:45:33;;;;;;;;;;;;;;;21.85;30.45;97747.63;5066073;28;906;-80
2023/05/30 12:47:58;;;;;;;;;;;;;;;21.70;30.85;97755.00;5048373;28;1090;-81
2023/05/30 12:50:24;;;;;;;;;;;;;;;21.62;30.94;97759.31;5081234;28;965;-81
2023/05/30 12:52:49;;;;;;;;;;;;;;;21.47;30.79;97760.97;5066037;28;1987;-81
2023/05/30 12:55:15;;;;;;;;;;;;;;;21.17;31.39;97757.34;5064583;28;1275;-80
2023/05/30 12:57:40;;;;;;;;;;;;;;;21.63;30.56;97772.22;5065157;28;1017;-81
2023/05/30 13:00:06;;;;;;;;;;;;;;;21.59;30.49;97768.69;5067297;28;1201;-81